Time;durP1;ratioP1;P1;durP2;ratioP2;P2;SDS_P1;SDS_P2;PMS_P1;PMS_P2;Temp;Humidity;BMP_temperature;BMP_pressure;BME280_temperature;BME280_humidity;BME280_pressure;Samples;Min_cycle;Max_cycle;Signal;HPM_P1;HPM_P2
2021/01/30 00:00:40;;;;;;;6.72;4.63;;;8.00;99.90;;;;;;4886579;29;20270;-79
2021/01/30 00:03:07;;;;;;;6.30;4.45;;;8.10;99.90;;;;;;4885149;29;20215;-80
2021/01/30 00:05:33;;;;;;;11.93;6.45;;;8.10;99.90;;;;;;4887062;29;20203;-79
2021/01/30 00:07:59;;;;;;;8.60;5.75;;;8.10;99.90;;;;;;4886104;29;20221;-80
2021/01/30 00:10:24;;;;;;;7.33;5.23;;;8.10;99.90;;;;;;4887648;29;20666;-79
2021/01/30 00:12:51;;;;;;;10.17;5.57;;;8.10;99.90;;;;;;4883722;29;20219;-81
2021/01/30 00:15:20;;;;;;;9.18;5.40;;;8.10;99.90;;;;;;4888435;29;20294;-79
2021/01/30 00:17:46;;;;;;;9.57;4.85;;;8.00;99.90;;;;;;4887891;29;20227;-79
2021/01/30 00:20:14;;;;;;;8.93;5.97;;;8.00;99.90;;;;;;4881203;29;20230;-81
2021/01/30 00:22:40;;;;;;;6.85;5.20;;;8.00;99.90;;;;;;4880462;29;20210;-82
2021/01/30 00:25:06;;;;;;;13.63;4.83;;;8.00;99.90;;;;;;4879392;29;20205;-81
2021/01/30 00:27:33;;;;;;;8.32;4.60;;;8.00;99.90;;;;;;4882275;29;20494;-80
2021/01/30 00:29:58;;;;;;;8.43;5.20;;;8.00;99.90;;;;;;4885246;29;20203;-80
2021/01/30 00:32:24;;;;;;;7.00;5.00;;;8.00;99.90;;;;;;4887009;29;20226;-80
2021/01/30 00:34:51;;;;;;;9.88;5.57;;;8.00;99.90;;;;;;4880775;29;20232;-79
2021/01/30 00:37:22;;;;;;;7.68;6.05;;;8.10;99.90;;;;;;4883697;29;20183;-78
2021/01/30 00:39:49;;;;;;;7.53;5.57;;;8.10;99.90;;;;;;4883572;29;20211;-78
2021/01/30 00:42:15;;;;;;;5.80;5.20;;;8.00;99.90;;;;;;4884345;29;20168;-78
2021/01/30 00:44:41;;;;;;;6.78;5.05;;;8.00;99.90;;;;;;4883763;29;20197;-78
2021/01/30 00:47:08;;;;;;;9.45;6.60;;;8.00;99.90;;;;;;4881913;29;20175;-78
2021/01/30 00:49:34;;;;;;;7.65;4.90;;;8.00;99.90;;;;;;4886318;29;20218;-78
2021/01/30 00:52:00;;;;;;;5.37;4.87;;;8.00;99.90;;;;;;4884864;29;20203;-78
2021/01/30 00:54:26;;;;;;;4.80;4.40;;;8.00;99.90;;;;;;4887954;29;20195;-78
2021/01/30 00:56:53;;;;;;;9.33;5.60;;;8.00;99.90;;;;;;4887711;29;20545;-79
2021/01/30 00:59:19;;;;;;;7.32;6.40;;;8.00;99.90;;;;;;4886889;29;20210;-78
2021/01/30 01:01:45;;;;;;;7.38;6.38;;;7.90;99.90;;;;;;4887415;29;20297;-78
2021/01/30 01:04:11;;;;;;;11.90;7.30;;;7.90;99.90;;;;;;4883593;29;20621;-80
2021/01/30 01:06:37;;;;;;;7.03;6.33;;;7.90;99.90;;;;;;4879613;29;20448;-81
2021/01/30 01:09:07;;;;;;;8.47;7.07;;;8.00;99.90;;;;;;4879659;29;20293;-82
2021/01/30 01:11:35;;;;;;;7.88;7.07;;;7.90;99.90;;;;;;4879507;29;20469;-81
2021/01/30 01:14:01;;;;;;;9.57;7.82;;;7.90;99.90;;;;;;4881280;29;20582;-79
2021/01/30 01:16:27;;;;;;;10.75;8.70;;;7.80;99.90;;;;;;4886386;29;20214;-79
2021/01/30 01:18:52;;;;;;;10.77;8.80;;;7.80;99.90;;;;;;4888552;29;20218;-79
2021/01/30 01:21:18;;;;;;;11.00;8.30;;;7.80;99.90;;;;;;4887903;29;20210;-79
2021/01/30 01:23:44;;;;;;;9.13;8.20;;;7.90;99.90;;;;;;4886173;29;20221;-81
2021/01/30 01:26:13;;;;;;;11.32;8.65;;;7.90;99.90;;;;;;4883973;29;20189;-81
2021/01/30 01:28:39;;;;;;;9.65;8.63;;;7.90;99.90;;;;;;4884114;29;20698;-80
2021/01/30 01:31:05;;;;;;;12.07;8.75;;;7.90;99.90;;;;;;4891062;29;20227;-79
2021/01/30 01:33:31;;;;;;;10.70;9.05;;;7.90;99.90;;;;;;4891194;29;20282;-81
2021/01/30 01:35:57;;;;;;;11.00;9.20;;;7.90;99.90;;;;;;4887953;29;20293;-81
2021/01/30 01:38:23;;;;;;;13.33;9.50;;;7.90;99.90;;;;;;4881156;29;20697;-80
2021/01/30 01:40:49;;;;;;;11.40;8.98;;;7.90;99.90;;;;;;4882684;29;20832;-80
2021/01/30 01:46:39;;;;;;;10.77;7.93;;;7.80;99.90;;;;;;4883169;29;20154;-80
2021/01/30 01:49:18;;;;;;;10.63;8.93;;;7.80;99.90;;;;;;4881022;29;20226;-80
2021/01/30 01:51:54;;;;;;;11.02;7.80;;;7.80;99.90;;;;;;4882533;29;20205;-80
2021/01/30 01:54:26;;;;;;;8.73;6.47;;;7.80;99.90;;;;;;4885872;29;20246;-78
2021/01/30 01:56:56;;;;;;;9.60;7.20;;;7.80;99.90;;;;;;4887514;29;20203;-78
2021/01/30 01:59:23;;;;;;;9.80;6.63;;;7.80;99.90;;;;;;4889715;29;20245;-79
2021/01/30 02:01:50;;;;;;;10.57;6.78;;;7.80;99.90;;;;;;4888298;29;20472;-79
2021/01/30 02:04:54;;;;;;;7.82;5.95;;;7.80;99.90;;;;;;4886359;29;20219;-81
2021/01/30 02:08:09;;;;;;;5.20;4.65;;;7.80;99.90;;;;;;4865263;29;20558;-81
2021/01/30 02:10:49;;;;;;;8.48;4.78;;;7.80;99.90;;;;;;4891210;29;20255;-79
2021/01/30 02:13:35;;;;;;;8.15;5.05;;;7.80;99.90;;;;;;4887612;29;20245;-80
2021/01/30 02:16:12;;;;;;;6.10;5.00;;;7.70;99.90;;;;;;4886503;29;20215;-79
2021/01/30 02:19:08;;;;;;;9.55;5.00;;;7.70;99.90;;;;;;4890636;29;20225;-79
2021/01/30 02:21:53;;;;;;;10.45;4.95;;;7.70;99.90;;;;;;4888769;29;20207;-79
2021/01/30 02:24:52;;;;;;;8.75;5.20;;;7.70;99.90;;;;;;4888356;29;20260;-79
2021/01/30 02:27:34;;;;;;;7.88;5.35;;;7.70;99.90;;;;;;4882956;29;21823;-82
2021/01/30 02:30:27;;;;;;;8.80;5.53;;;7.60;99.90;;;;;;4888066;29;20198;-82
2021/01/30 02:34:12;;;;;;;5.40;4.57;;;7.60;99.90;;;;;;4891517;29;20243;-82
2021/01/30 02:37:00;;;;;;;5.85;4.93;;;7.60;99.90;;;;;;4847119;29;20293;-82
2021/01/30 02:39:31;;;;;;;6.75;5.70;;;7.50;99.90;;;;;;4881878;29;20310;-81
2021/01/30 02:42:29;;;;;;;7.00;5.50;;;7.50;99.90;;;;;;4880469;29;20266;-81
2021/01/30 02:45:26;;;;;;;5.75;5.10;;;7.50;99.90;;;;;;4865759;29;20210;-79
2021/01/30 02:48:23;;;;;;;7.15;5.75;;;7.40;99.90;;;;;;4872081;29;20212;-79
2021/01/30 02:50:53;;;;;;;7.97;5.75;;;7.40;99.90;;;;;;4886512;29;20216;-79
2021/01/30 02:53:23;;;;;;;7.30;5.90;;;7.40;99.90;;;;;;4888979;29;20310;-79
2021/01/30 02:55:59;;;;;;;8.02;6.70;;;7.40;99.90;;;;;;4884599;29;20750;-81
2021/01/30 03:02:03;;;;;;;10.75;8.75;;;7.40;99.90;;;;;;4881395;29;20214;-81
2021/01/30 03:04:29;;;;;;;12.30;8.60;;;7.30;99.90;;;;;;4887637;29;20199;-81
2021/01/30 03:07:10;;;;;;;9.20;7.55;;;7.30;99.90;;;;;;4889185;29;20217;-79
2021/01/30 03:09:48;;;;;;;11.70;8.80;;;7.20;99.90;;;;;;4890835;29;20511;-78
2021/01/30 03:12:38;;;;;;;8.18;7.30;;;7.20;99.90;;;;;;4889284;29;20203;-78
2021/01/30 03:15:26;;;;;;;9.48;7.70;;;7.10;99.90;;;;;;4876060;29;20208;-78
2021/01/30 03:17:54;;;;;;;11.93;8.85;;;7.10;99.90;;;;;;4889065;29;20275;-79
2021/01/30 03:20:20;;;;;;;10.85;7.97;;;7.10;99.90;;;;;;4889321;29;20636;-79
2021/01/30 03:22:49;;;;;;;10.98;8.00;;;7.20;99.90;;;;;;4889804;29;20214;-79
2021/01/30 03:25:20;;;;;;;11.25;8.85;;;7.10;99.90;;;;;;4889561;29;20270;-80
2021/01/30 03:30:59;;;;;;;12.82;7.88;;;7.10;99.90;;;;;;4866377;29;20187;-79
2021/01/30 03:33:26;;;;;;;11.70;8.00;;;7.00;99.90;;;;;;4893823;29;20235;-79
2021/01/30 03:35:52;;;;;;;17.60;10.73;;;7.00;99.90;;;;;;4888373;29;20195;-79
2021/01/30 03:38:17;;;;;;;12.63;10.80;;;7.00;99.90;;;;;;4892645;29;20241;-79
2021/01/30 03:40:43;;;;;;;14.10;11.13;;;7.00;99.90;;;;;;4893374;29;20503;-79
2021/01/30 03:43:10;;;;;;;15.67;13.10;;;6.90;99.90;;;;;;4893317;29;20245;-79
2021/01/30 03:45:58;;;;;;;16.10;12.05;;;6.80;99.90;;;;;;4888885;29;20443;-81
2021/01/30 03:48:24;;;;;;;15.90;12.48;;;6.70;99.90;;;;;;4884478;29;20221;-79
2021/01/30 03:51:21;;;;;;;15.27;13.23;;;6.70;99.90;;;;;;4891355;29;20218;-81
2021/01/30 03:56:48;;;;;;;23.00;12.10;;;6.50;99.90;;;;;;5366603;23;20255;-79
2021/01/30 03:59:24;;;;;;;17.05;12.55;;;6.50;99.90;;;;;;4908394;29;20217;-81
2021/01/30 04:01:50;;;;;;;16.42;12.20;;;6.50;99.90;;;;;;4917923;29;20188;-81
2021/01/30 04:04:17;;;;;;;23.93;14.20;;;6.40;99.90;;;;;;4918016;29;20205;-79
2021/01/30 04:06:47;;;;;;;27.25;13.75;;;6.40;99.90;;;;;;4933856;29;20421;-79
2021/01/30 04:09:13;;;;;;;23.60;14.05;;;6.30;99.90;;;;;;4929778;29;20285;-79
2021/01/30 04:11:41;;;;;;;26.45;14.88;;;6.30;99.90;;;;;;4931185;29;20204;-79
2021/01/30 04:14:07;;;;;;;25.65;14.38;;;6.30;99.90;;;;;;4930476;29;20244;-79
2021/01/30 04:20:13;;;;;;;17.85;12.30;;;6.10;99.90;;;;;;4896884;29;20213;-81
2021/01/30 04:22:59;;;;;;;13.05;10.32;;;6.10;99.90;;;;;;4913884;29;20761;-79
2021/01/30 04:25:25;;;;;;;18.60;11.60;;;6.10;99.90;;;;;;4934221;29;20228;-80
2021/01/30 04:27:52;;;;;;;16.15;10.27;;;6.00;99.90;;;;;;4926306;29;20261;-79
2021/01/30 04:30:23;;;;;;;18.08;12.15;;;6.00;99.90;;;;;;4926392;29;20205;-79
2021/01/30 04:32:49;;;;;;;17.55;11.02;;;6.00;99.90;;;;;;4924484;29;20595;-79
2021/01/30 04:35:17;;;;;;;21.20;11.70;;;6.00;99.90;;;;;;4923590;29;20228;-79
2021/01/30 04:37:42;;;;;;;15.65;11.85;;;6.00;99.90;;;;;;4919678;29;20213;-78
2021/01/30 04:40:23;;;;;;;16.17;11.00;;;6.00;99.90;;;;;;4921759;29;20216;-80
2021/01/30 04:43:31;;;;;;;18.98;13.02;;;6.00;99.90;;;;;;4910783;29;20230;-81
2021/01/30 04:46:45;;;;;;;15.82;12.88;;;5.90;99.90;;;;;;4892794;29;20556;-79
2021/01/30 04:52:47;;;;;;;14.10;11.23;;;5.80;99.90;;;;;;4924005;29;20280;-78
2021/01/30 04:55:48;;;;;;;14.60;10.68;;;5.70;99.90;;;;;;4925851;29;20207;-79
2021/01/30 04:58:19;;;;;;;14.13;10.88;;;5.70;99.90;;;;;;4896298;29;20228;-78
2021/01/30 05:00:59;;;;;;;14.68;11.23;;;5.70;99.90;;;;;;4929562;29;20209;-79
2021/01/30 05:04:29;;;;;;;14.25;10.88;;;5.60;99.90;;;;;;4926895;29;20213;-79
2021/01/30 05:07:19;;;;;;;15.90;11.65;;;5.60;99.90;;;;;;4864955;29;20198;-79
2021/01/30 05:09:59;;;;;;;15.75;11.10;;;5.50;99.90;;;;;;4854309;29;20223;-79
2021/01/30 05:12:46;;;;;;;11.70;10.45;;;5.60;99.90;;;;;;4907740;29;20223;-79
2021/01/30 05:15:39;;;;;;;14.73;10.68;;;5.60;99.90;;;;;;4911037;29;20232;-79
2021/01/30 05:18:36;;;;;;;13.32;10.30;;;5.50;99.90;;;;;;4919671;29;20244;-81
2021/01/30 05:21:22;;;;;;;13.77;10.95;;;5.50;99.90;;;;;;4897254;29;20640;-81
2021/01/30 05:24:13;;;;;;;11.20;10.02;;;5.30;99.90;;;;;;4893276;29;20209;-81
2021/01/30 05:27:09;;;;;;;11.15;9.45;;;5.20;99.90;;;;;;4889712;29;20202;-81
2021/01/30 05:29:50;;;;;;;12.65;10.45;;;5.10;99.90;;;;;;4898301;29;20218;-81
2021/01/30 05:32:43;;;;;;;11.63;10.43;;;5.10;99.90;;;;;;4898466;29;20753;-81
2021/01/30 05:35:17;;;;;;;11.27;9.45;;;5.10;99.90;;;;;;4902366;29;20198;-80
2021/01/30 05:37:54;;;;;;;9.55;8.55;;;5.00;99.90;;;;;;4928523;29;20236;-80
2021/01/30 05:40:35;;;;;;;11.77;9.38;;;5.00;99.90;;;;;;4915095;29;20545;-80
2021/01/30 05:46:44;;;;;;;10.05;8.98;;;4.90;99.90;;;;;;4915303;29;20205;-79
2021/01/30 05:49:16;;;;;;;13.45;9.35;;;4.80;99.90;;;;;;4918479;29;20285;-79
2021/01/30 05:51:53;;;;;;;13.75;9.60;;;4.70;99.90;;;;;;4918072;29;20201;-79
2021/01/30 05:54:19;;;;;;;15.35;9.98;;;4.70;99.90;;;;;;4915053;29;20676;-79
2021/01/30 05:56:45;;;;;;;13.00;10.00;;;4.60;99.90;;;;;;4916752;29;20223;-81
2021/01/30 05:59:23;;;;;;;12.70;9.33;;;4.60;99.90;;;;;;4917122;29;20228;-79
2021/01/30 06:01:49;;;;;;;13.10;10.18;;;4.50;99.90;;;;;;4918781;29;20208;-81
2021/01/30 06:04:24;;;;;;;19.83;11.93;;;4.40;99.90;;;;;;4923194;29;20217;-81
2021/01/30 06:06:56;;;;;;;14.70;10.77;;;4.50;99.90;;;;;;4924586;29;20920;-81
2021/01/30 06:09:33;;;;;;;15.07;11.05;;;4.30;99.90;;;;;;4922188;29;20268;-81
2021/01/30 06:12:02;;;;;;;13.93;10.52;;;4.40;99.90;;;;;;4919306;29;20576;-81
2021/01/30 06:14:37;;;;;;;17.45;11.52;;;4.40;99.90;;;;;;4920134;29;20244;-81
2021/01/30 06:17:14;;;;;;;15.27;11.48;;;4.30;99.90;;;;;;4919758;29;20205;-81
2021/01/30 06:19:40;;;;;;;19.60;11.95;;;4.40;99.90;;;;;;4918563;29;20559;-81
2021/01/30 06:22:22;;;;;;;21.40;12.80;;;4.40;99.90;;;;;;4919169;29;20200;-81
2021/01/30 06:24:49;;;;;;;18.10;13.70;;;4.40;99.90;;;;;;4919623;29;20548;-80
2021/01/30 06:27:26;;;;;;;19.38;13.50;;;4.40;99.90;;;;;;4919434;29;20206;-79
2021/01/30 06:29:57;;;;;;;19.38;13.45;;;4.30;99.90;;;;;;4918189;29;20200;-79
2021/01/30 06:32:30;;;;;;;18.33;13.40;;;4.30;99.90;;;;;;4916139;29;20221;-79
2021/01/30 06:35:22;;;;;;;20.13;13.68;;;4.30;99.90;;;;;;4899182;29;20236;-81
2021/01/30 06:37:54;;;;;;;19.23;13.90;;;4.20;99.90;;;;;;4873349;29;20236;-81
2021/01/30 06:40:25;;;;;;;22.50;15.18;;;4.10;99.90;;;;;;4913999;29;20212;-79
2021/01/30 06:42:54;;;;;;;23.77;14.60;;;4.20;99.90;;;;;;4918601;29;20209;-79
2021/01/30 06:45:37;;;;;;;19.45;14.38;;;4.20;99.90;;;;;;4911604;29;20198;-81
2021/01/30 06:48:08;;;;;;;20.55;14.27;;;4.20;99.90;;;;;;5023622;23;20225;-79
2021/01/30 06:50:41;;;;;;;21.33;14.23;;;4.10;99.90;;;;;;4921098;29;20211;-79
2021/01/30 06:53:24;;;;;;;18.88;13.15;;;4.10;99.90;;;;;;4921161;29;20245;-79
2021/01/30 06:55:50;;;;;;;25.75;15.70;;;4.10;99.90;;;;;;4918316;29;20345;-80
2021/01/30 06:58:41;;;;;;;16.85;13.68;;;4.00;99.90;;;;;;4904517;29;20273;-81
2021/01/30 07:01:49;;;;;;;19.20;13.95;;;4.00;99.90;;;;;;4902991;29;20285;-81
2021/01/30 07:04:53;;;;;;;17.70;13.88;;;4.00;99.90;;;;;;4903545;29;20209;-81
2021/01/30 07:07:43;;;;;;;22.98;13.63;;;4.00;99.90;;;;;;4903041;29;20237;-81
2021/01/30 07:10:46;;;;;;;20.92;13.73;;;3.90;99.90;;;;;;4902716;29;20285;-82
2021/01/30 07:13:50;;;;;;;17.40;13.38;;;3.90;99.90;;;;;;4876873;29;20312;-81
2021/01/30 07:16:36;;;;;;;19.75;15.25;;;3.90;99.90;;;;;;4905858;29;20257;-80
2021/01/30 07:19:20;;;;;;;21.48;15.20;;;3.90;99.90;;;;;;4892753;29;20218;-80
2021/01/30 07:21:51;;;;;;;22.35;15.35;;;4.00;99.90;;;;;;4899757;29;20206;-80
2021/01/30 07:24:42;;;;;;;19.45;15.57;;;3.90;99.90;;;;;;4909881;28;20222;-80
2021/01/30 07:27:45;;;;;;;22.75;15.50;;;3.80;99.90;;;;;;4914497;29;20212;-80
2021/01/30 07:30:17;;;;;;;24.75;18.15;;;3.80;99.90;;;;;;4918460;29;20629;-80
2021/01/30 07:33:02;;;;;;;22.05;16.50;;;3.90;99.90;;;;;;4906830;29;20225;-80
2021/01/30 07:36:01;;;;;;;23.05;16.08;;;3.90;99.90;;;;;;4922078;29;20203;-81
2021/01/30 07:39:01;;;;;;;22.85;15.80;;;3.80;99.90;;;;;;4912950;29;20223;-80
2021/01/30 07:41:48;;;;;;;22.70;17.80;;;3.80;99.90;;;;;;4912896;29;20217;-81
2021/01/30 07:44:37;;;;;;;27.55;18.38;;;3.80;99.90;;;;;;4914795;29;20213;-80
2021/01/30 07:47:18;;;;;;;20.85;15.75;;;3.80;99.90;;;;;;4878868;29;20228;-80
2021/01/30 07:49:48;;;;;;;24.05;18.05;;;3.80;99.90;;;;;;4920625;29;20173;-80
2021/01/30 07:52:31;;;;;;;24.38;18.10;;;3.70;99.90;;;;;;4912069;29;20682;-81
2021/01/30 07:54:59;;;;;;;24.27;17.95;;;3.70;99.90;;;;;;4919968;29;20193;-80
2021/01/30 08:01:06;;;;;;;25.70;20.13;;;3.80;99.90;;;;;;4906560;29;20253;-80
2021/01/30 08:03:48;;;;;;;23.80;17.30;;;3.80;99.90;;;;;;4900028;29;20210;-80
2021/01/30 08:06:49;;;;;;;27.50;19.30;;;3.80;99.90;;;;;;4898649;29;20194;-80
2021/01/30 08:09:29;;;;;;;26.85;19.30;;;3.80;99.90;;;;;;4912650;29;20228;-80
2021/01/30 08:12:04;;;;;;;26.50;19.63;;;3.80;99.90;;;;;;4898982;29;20198;-80
2021/01/30 08:14:42;;;;;;;21.55;16.52;;;3.70;99.90;;;;;;4915599;29;20295;-79
2021/01/30 08:17:23;;;;;;;26.58;18.23;;;3.60;99.90;;;;;;4914413;28;20302;-80
2021/01/30 08:20:05;;;;;;;24.33;18.02;;;3.60;99.90;;;;;;4906529;29;20678;-80
2021/01/30 08:22:53;;;;;;;24.98;18.63;;;3.50;99.90;;;;;;4901522;29;20356;-81
2021/01/30 08:25:37;;;;;;;26.88;19.02;;;3.40;99.90;;;;;;4898584;29;20186;-79
2021/01/30 08:28:32;;;;;;;25.67;18.58;;;3.40;99.90;;;;;;4899732;29;20632;-80
2021/01/30 08:30:57;;;;;;;27.95;20.85;;;3.40;99.90;;;;;;4916071;29;20597;-81
2021/01/30 08:33:23;;;;;;;26.60;19.03;;;3.50;99.90;;;;;;4916645;29;20217;-81
2021/01/30 08:35:55;;;;;;;26.95;19.10;;;3.50;99.90;;;;;;4905554;29;20245;-79
2021/01/30 08:38:20;;;;;;;24.65;17.73;;;3.50;99.90;;;;;;4902785;29;20284;-80
2021/01/30 08:40:49;;;;;;;25.20;18.97;;;3.50;99.90;;;;;;4917038;29;20189;-80
2021/01/30 08:43:36;;;;;;;25.50;18.42;;;3.50;99.90;;;;;;4900823;29;20705;-80
2021/01/30 08:46:23;;;;;;;25.60;17.95;;;3.60;99.90;;;;;;4896281;29;20189;-79
2021/01/30 08:49:15;;;;;;;25.70;18.52;;;3.50;99.90;;;;;;4885972;29;20301;-81
2021/01/30 08:51:45;;;;;;;26.80;19.02;;;3.40;99.90;;;;;;4887760;29;20220;-79
2021/01/30 08:54:29;;;;;;;27.70;18.38;;;3.40;99.90;;;;;;4894483;29;20296;-79
2021/01/30 08:56:56;;;;;;;23.77;16.75;;;3.30;99.90;;;;;;4894323;29;20206;-81
2021/01/30 08:59:47;;;;;;;25.90;18.27;;;3.30;99.90;;;;;;4880892;29;20715;-80
2021/01/30 09:02:28;;;;;;;24.45;16.85;;;3.30;99.90;;;;;;4889420;29;20233;-79
2021/01/30 09:05:33;;;;;;;24.45;17.45;;;3.30;99.90;;;;;;4907749;29;20182;-79
2021/01/30 09:08:21;;;;;;;23.75;16.67;;;3.30;99.90;;;;;;4868538;29;20217;-80
2021/01/30 09:10:47;;;;;;;26.00;18.55;;;3.40;99.90;;;;;;4888240;29;20208;-80
2021/01/30 09:13:15;;;;;;;23.90;16.27;;;3.40;99.90;;;;;;4886260;29;20226;-80
2021/01/30 09:16:19;;;;;;;25.38;17.20;;;3.40;99.90;;;;;;4882309;29;20190;-81
2021/01/30 09:19:15;;;;;;;26.83;19.90;;;3.40;99.90;;;;;;4894373;29;20432;-81
2021/01/30 09:22:05;;;;;;;23.48;18.15;;;3.40;99.90;;;;;;4900382;29;20256;-82
2021/01/30 09:25:03;;;;;;;26.00;17.98;;;3.30;99.90;;;;;;4899843;29;20206;-81
2021/01/30 09:27:33;;;;;;;26.63;18.40;;;3.40;99.90;;;;;;4897152;29;20217;-81
2021/01/30 09:30:28;;;;;;;29.73;18.98;;;3.40;99.90;;;;;;4907285;29;20198;-81
2021/01/30 09:32:54;;;;;;;31.00;20.63;;;3.40;99.90;;;;;;4896599;29;20225;-80
2021/01/30 09:35:27;;;;;;;27.67;17.73;;;3.40;99.90;;;;;;4895406;29;20201;-80
2021/01/30 09:37:53;;;;;;;27.02;18.30;;;3.40;99.90;;;;;;4890902;29;20462;-80
2021/01/30 09:40:30;;;;;;;29.77;20.07;;;3.40;99.90;;;;;;4906303;29;20224;-81
2021/01/30 09:43:00;;;;;;;27.30;19.27;;;3.30;99.90;;;;;;4903415;29;20277;-81
2021/01/30 09:45:26;;;;;;;27.58;19.55;;;3.20;99.90;;;;;;4905920;29;20235;-81
2021/01/30 09:48:20;;;;;;;27.63;20.00;;;3.10;99.90;;;;;;4903872;29;20647;-79
2021/01/30 09:54:02;;;;;;;27.88;20.02;;;3.20;99.90;;;;;;4866391;29;20225;-79
2021/01/30 09:56:34;;;;;;;29.97;21.10;;;3.10;99.90;;;;;;4900548;29;20649;-80
2021/01/30 09:59:00;;;;;;;28.90;20.25;;;3.20;99.90;;;;;;4905501;29;20221;-82
2021/01/30 10:01:32;;;;;;;27.45;20.05;;;3.20;99.90;;;;;;4907583;29;20209;-81
2021/01/30 10:04:00;;;;;;;31.58;21.58;;;3.30;99.90;;;;;;4909120;29;20221;-82
2021/01/30 10:06:50;;;;;;;29.00;19.40;;;3.30;99.90;;;;;;4909324;29;20162;-81
2021/01/30 10:09:42;;;;;;;27.25;19.10;;;3.30;99.90;;;;;;4888807;29;20210;-82
2021/01/30 10:12:25;;;;;;;30.13;19.92;;;3.20;99.90;;;;;;4899497;29;20198;-82
2021/01/30 10:15:47;;;;;;;28.23;18.10;;;3.30;99.90;;;;;;4895511;29;20202;-81
2021/01/30 10:18:55;;;;;;;26.90;19.15;;;3.30;99.90;;;;;;4905743;29;20198;-80
2021/01/30 10:21:37;;;;;;;25.23;17.73;;;3.30;99.90;;;;;;4837972;29;20227;-80
2021/01/30 10:24:45;;;;;;;28.85;18.33;;;3.30;99.90;;;;;;4899359;29;20291;-82
2021/01/30 10:27:24;;;;;;;30.00;19.50;;;3.40;99.90;;;;;;4816244;29;20272;-80
2021/01/30 10:29:55;;;;;;;30.00;19.13;;;3.40;99.90;;;;;;4795264;29;20245;-80
2021/01/30 10:32:50;;;;;;;32.38;21.42;;;3.30;99.90;;;;;;4792795;29;20225;-82
2021/01/30 10:35:42;;;;;;;29.02;20.35;;;3.40;99.90;;;;;;4826680;29;20241;-81
2021/01/30 10:38:53;;;;;;;31.33;20.35;;;3.40;99.90;;;;;;4879334;29;20754;-80
2021/01/30 10:41:22;;;;;;;32.47;20.65;;;3.30;99.90;;;;;;4848658;29;20225;-81
2021/01/30 10:43:56;;;;;;;29.10;18.88;;;3.40;99.90;;;;;;4911437;29;20217;-80
2021/01/30 10:47:07;;;;;;;30.35;19.75;;;3.40;99.90;;;;;;4917113;29;20241;-82
2021/01/30 10:49:36;;;;;;;27.33;19.10;;;3.50;99.90;;;;;;4913096;29;20226;-81
2021/01/30 10:52:30;;;;;;;25.23;18.42;;;3.50;99.90;;;;;;4907258;29;20178;-81
2021/01/30 10:55:49;;;;;;;28.27;21.08;;;3.50;99.90;;;;;;4912892;29;20206;-82
2021/01/30 10:58:38;;;;;;;30.88;20.83;;;3.50;99.90;;;;;;4905757;29;20202;-81
2021/01/30 16:08:30;;;;;;;6.25;5.63;;;2.60;99.90;;;;;;4917303;29;20272;-79
2021/01/30 16:10:55;;;;;;;6.80;5.20;;;2.60;99.90;;;;;;4915938;29;20692;-81
2021/01/30 16:13:21;;;;;;;6.30;5.70;;;2.50;99.90;;;;;;4918152;29;20234;-79
2021/01/30 16:15:47;;;;;;;7.80;6.50;;;2.50;99.90;;;;;;4917371;29;20288;-79
2021/01/30 16:18:12;;;;;;;7.43;6.37;;;2.40;99.90;;;;;;4916520;29;20212;-79
2021/01/30 16:20:38;;;;;;;8.60;6.80;;;2.30;99.90;;;;;;4915182;29;20268;-79
2021/01/30 16:23:04;;;;;;;7.27;5.93;;;2.30;99.90;;;;;;4916353;29;20213;-79
2021/01/30 16:25:31;;;;;;;6.57;5.57;;;2.30;99.90;;;;;;4915044;29;20224;-80
2021/01/30 16:27:57;;;;;;;6.82;6.13;;;2.40;99.90;;;;;;4915836;29;20571;-80
2021/01/30 16:30:23;;;;;;;7.25;6.00;;;2.40;99.90;;;;;;4915146;29;21221;-79
2021/01/30 16:32:51;;;;;;;6.68;5.43;;;2.40;99.90;;;;;;4915570;29;20214;-81
2021/01/30 16:35:21;;;;;;;5.32;4.65;;;2.40;99.90;;;;;;4917543;29;20288;-79
2021/01/30 16:37:46;;;;;;;7.13;4.70;;;2.30;99.90;;;;;;4916042;29;20307;-79
2021/01/30 16:40:15;;;;;;;7.50;5.50;;;2.30;99.90;;;;;;4915959;29;20313;-80
2021/01/30 16:42:41;;;;;;;5.10;4.53;;;2.30;99.90;;;;;;4915651;29;20209;-81
2021/01/30 16:45:08;;;;;;;5.10;4.30;;;2.20;99.90;;;;;;4917551;29;20199;-81
2021/01/30 16:47:37;;;;;;;6.97;5.30;;;2.20;99.90;;;;;;5111766;23;20212;-81
2021/01/30 16:50:04;;;;;;;5.20;3.90;;;2.20;99.90;;;;;;4915532;29;20596;-80
2021/01/30 16:52:31;;;;;;;4.65;4.25;;;2.20;99.90;;;;;;4916088;29;20209;-80
2021/01/30 16:54:57;;;;;;;8.00;5.25;;;2.20;99.90;;;;;;4908276;29;20209;-80
2021/01/30 16:57:22;;;;;;;5.37;4.50;;;2.10;99.90;;;;;;4897693;29;20225;-80
2021/01/30 16:59:48;;;;;;;6.80;4.90;;;2.10;99.90;;;;;;4899874;29;20434;-80
2021/01/30 17:02:14;;;;;;;6.47;5.53;;;2.10;99.90;;;;;;4918796;23;20247;-80
2021/01/30 17:04:40;;;;;;;4.93;4.53;;;2.10;99.90;;;;;;4896737;29;20297;-80
2021/01/30 17:07:06;;;;;;;6.50;5.53;;;2.00;99.90;;;;;;4908733;29;20310;-80
2021/01/30 17:09:32;;;;;;;4.93;4.47;;;2.00;99.90;;;;;;4915719;29;20248;-80
2021/01/30 17:11:58;;;;;;;5.80;4.87;;;2.00;99.90;;;;;;4897288;29;20198;-82
2021/01/30 17:14:23;;;;;;;5.20;4.70;;;2.00;99.90;;;;;;4903161;29;20817;-82
2021/01/30 17:16:53;;;;;;;6.20;4.90;;;2.00;99.90;;;;;;4916865;29;20204;-80
2021/01/30 17:19:20;;;;;;;6.10;4.95;;;2.00;99.90;;;;;;4915096;29;20680;-80
2021/01/30 17:21:45;;;;;;;5.15;3.97;;;2.00;99.90;;;;;;4914306;29;20212;-80
2021/01/30 17:24:11;;;;;;;7.53;5.47;;;2.00;99.90;;;;;;4915635;29;20221;-82
2021/01/30 17:26:37;;;;;;;6.90;5.10;;;2.00;99.90;;;;;;4915733;29;20542;-80
2021/01/30 17:29:04;;;;;;;6.10;4.60;;;2.00;99.90;;;;;;4913460;29;20968;-80
2021/01/30 17:31:30;;;;;;;5.03;4.50;;;2.00;99.90;;;;;;4914608;29;20428;-80
2021/01/30 17:33:55;;;;;;;7.95;4.55;;;2.00;99.90;;;;;;4901465;29;20576;-80
2021/01/30 17:36:21;;;;;;;5.87;5.37;;;2.00;99.90;;;;;;4916266;29;20202;-82
2021/01/30 17:38:47;;;;;;;4.40;3.90;;;2.00;99.90;;;;;;4916427;29;20248;-82
2021/01/30 17:41:13;;;;;;;5.27;4.77;;;2.00;99.90;;;;;;4916296;29;20244;-79
2021/01/30 17:43:38;;;;;;;4.63;4.23;;;1.90;99.90;;;;;;4914549;29;20220;-82
2021/01/30 17:46:08;;;;;;;6.20;4.80;;;2.00;99.90;;;;;;4915094;29;20430;-82
2021/01/30 17:48:35;;;;;;;4.53;4.13;;;2.00;99.90;;;;;;4915288;29;20209;-80
2021/01/30 17:51:01;;;;;;;6.35;3.90;;;1.90;99.90;;;;;;4915068;29;20177;-80
2021/01/30 17:53:27;;;;;;;4.35;3.95;;;1.90;99.90;;;;;;4916293;29;20643;-82
2021/01/30 17:55:52;;;;;;;5.80;4.30;;;2.00;99.90;;;;;;4915228;29;20275;-81
2021/01/30 17:58:18;;;;;;;6.50;4.70;;;2.00;99.90;;;;;;4916997;29;20569;-81
2021/01/30 18:00:45;;;;;;;5.23;4.53;;;1.90;99.90;;;;;;4919878;29;20221;-81
2021/01/30 18:03:13;;;;;;;5.35;3.92;;;1.90;99.90;;;;;;4919394;29;20217;-81
2021/01/30 18:05:42;;;;;;;4.55;4.03;;;2.00;99.90;;;;;;4919927;29;20191;-82
2021/01/30 18:08:10;;;;;;;6.88;4.95;;;2.00;99.90;;;;;;4919079;29;20213;-79
2021/01/30 18:10:36;;;;;;;5.80;4.47;;;2.00;99.90;;;;;;5067311;23;20207;-80
2021/01/30 18:13:04;;;;;;;6.80;5.00;;;1.90;99.90;;;;;;4916865;28;20308;-79
2021/01/30 18:15:30;;;;;;;5.90;5.20;;;2.00;99.90;;;;;;4904045;29;20277;-81
2021/01/30 18:17:56;;;;;;;5.93;5.13;;;1.90;99.90;;;;;;4900255;29;20300;-81
2021/01/30 18:20:25;;;;;;;10.07;5.30;;;1.90;99.90;;;;;;4900662;29;20178;-79
2021/01/30 18:26:12;;;;;;;5.90;5.07;;;2.00;99.90;;;;;;4900847;29;20193;-81
2021/01/30 18:28:39;;;;;;;6.20;5.57;;;2.00;99.90;;;;;;4897170;29;20214;-79
2021/01/30 18:31:05;;;;;;;6.93;5.78;;;2.00;99.90;;;;;;4900247;29;20544;-80
2021/01/30 18:33:31;;;;;;;8.50;6.00;;;2.10;99.90;;;;;;4897925;29;20225;-79
2021/01/30 18:36:29;;;;;;;7.30;5.07;;;2.10;99.90;;;;;;4899053;29;20290;-81
2021/01/30 18:38:54;;;;;;;6.80;5.93;;;2.00;99.90;;;;;;4890464;29;20475;-79
2021/01/30 18:41:48;;;;;;;6.20;5.60;;;2.10;99.90;;;;;;4899396;29;20665;-81
2021/01/30 18:46:45;;;;;;;7.00;5.32;;;2.10;99.90;;;;;;4916885;29;20680;-81
2021/01/30 18:49:10;;;;;;;7.25;6.00;;;2.10;99.90;;;;;;4918395;29;20216;-81
2021/01/30 18:51:36;;;;;;;8.50;5.87;;;2.10;99.90;;;;;;4918302;29;20165;-79
2021/01/30 18:54:02;;;;;;;7.70;5.20;;;2.10;99.90;;;;;;4915586;29;20221;-79
2021/01/30 18:56:27;;;;;;;9.23;6.80;;;2.10;99.90;;;;;;4897652;29;20182;-79
2021/01/30 18:58:53;;;;;;;7.17;6.47;;;2.10;99.90;;;;;;4897357;29;20217;-79
2021/01/30 19:01:19;;;;;;;7.20;6.40;;;2.10;99.90;;;;;;4896835;29;20585;-80
2021/01/30 19:03:45;;;;;;;7.03;6.33;;;2.10;99.90;;;;;;4897677;29;20305;-79
2021/01/30 19:06:10;;;;;;;6.53;5.80;;;2.20;99.90;;;;;;4897156;29;21762;-79
2021/01/30 19:08:38;;;;;;;8.40;6.47;;;2.20;99.90;;;;;;4896742;29;20234;-79
2021/01/30 19:11:04;;;;;;;8.20;5.82;;;2.20;99.90;;;;;;4896250;29;20249;-79
2021/01/30 19:13:29;;;;;;;6.73;5.47;;;2.10;99.90;;;;;;4896186;29;20229;-79